Time;durP1;ratioP1;P1;durP2;ratioP2;P2;SDS_P1;SDS_P2;PMS_P1;PMS_P2;Temp;Humidity;BMP_temperature;BMP_pressure;BME280_temperature;BME280_humidity;BME280_pressure;Samples;Min_cycle;Max_cycle;Signal;HPM_P1;HPM_P2
2023/10/19 00:01:26;;;;;;;15.80;8.73;;;;;;;;;;4932377;29;20456;-63
2023/10/19 00:03:55;;;;;;;15.50;9.45;;;;;;;;;;4933184;29;20095;-63
2023/10/19 00:06:21;;;;;;;16.77;9.35;;;;;;;;;;4930746;29;20070;-63
2023/10/19 00:08:50;;;;;;;15.57;9.43;;;;;;;;;;4932324;29;20043;-62
2023/10/19 00:11:22;;;;;;;16.92;9.80;;;;;;;;;;4914652;29;20031;-63
2023/10/19 00:13:50;;;;;;;16.77;9.07;;;;;;;;;;4932907;29;20473;-62
2023/10/19 00:16:17;;;;;;;15.75;9.30;;;;;;;;;;4932040;29;20040;-63
2023/10/19 00:18:43;;;;;;;16.60;9.50;;;;;;;;;;4930910;29;20497;-63
2023/10/19 00:21:23;;;;;;;17.65;9.52;;;;;;;;;;4932131;29;20054;-62
2023/10/19 00:23:55;;;;;;;16.38;9.48;;;;;;;;;;4932121;29;20043;-62
2023/10/19 00:26:20;;;;;;;20.42;10.63;;;;;;;;;;4931755;29;20126;-63
2023/10/19 00:28:49;;;;;;;15.52;9.82;;;;;;;;;;4915544;29;20230;-63
2023/10/19 00:31:15;;;;;;;14.93;9.35;;;;;;;;;;4916204;29;20036;-63
2023/10/19 00:33:40;;;;;;;19.23;9.75;;;;;;;;;;4932077;29;20070;-63
2023/10/19 00:36:08;;;;;;;21.90;9.52;;;;;;;;;;4936144;29;20040;-62
2023/10/19 00:43:37;;;;;;;19.00;9.73;;;;;;;;;;4914374;29;20474;-62
2023/10/19 00:48:58;;;;;;;15.95;9.75;;;;;;;;;;4900897;29;20122;-62
2023/10/19 00:54:21;;;;;;;15.27;10.02;;;;;;;;;;4934412;29;20032;-63
2023/10/19 00:56:56;;;;;;;15.48;9.50;;;;;;;;;;4918233;29;20064;-63
2023/10/19 00:59:23;;;;;;;16.98;9.23;;;;;;;;;;4936586;29;20087;-63
2023/10/19 01:01:54;;;;;;;19.05;9.52;;;;;;;;;;4935974;29;20445;-62
2023/10/19 01:04:23;;;;;;;14.10;9.18;;;;;;;;;;4935126;29;20396;-63
2023/10/19 01:07:05;;;;;;;16.17;9.35;;;;;;;;;;4930559;29;20091;-62
2023/10/19 01:09:35;;;;;;;16.88;9.13;;;;;;;;;;4928890;29;20552;-62
2023/10/19 01:12:21;;;;;;;15.38;9.50;;;;;;;;;;4934806;29;20056;-63
2023/10/19 01:15:07;;;;;;;14.32;9.35;;;;;;;;;;4935195;29;20533;-62
2023/10/19 01:17:39;;;;;;;15.88;9.27;;;;;;;;;;4934799;29;20059;-62
2023/10/19 01:20:23;;;;;;;15.48;9.25;;;;;;;;;;4917483;29;20127;-62
2023/10/19 01:25:44;;;;;;;12.68;8.82;;;;;;;;;;4923465;29;20059;-63
2023/10/19 01:28:10;;;;;;;14.90;9.18;;;;;;;;;;4935754;29;20350;-62
2023/10/19 01:30:38;;;;;;;13.77;9.00;;;;;;;;;;4917317;29;20035;-63
2023/10/19 01:33:08;;;;;;;14.50;9.50;;;;;;;;;;4934545;29;20035;-63
2023/10/19 01:38:17;;;;;;;16.80;9.02;;;;;;;;;;4934881;29;20047;-62
2023/10/19 01:40:46;;;;;;;19.10;9.85;;;;;;;;;;4916955;29;20035;-63
2023/10/19 01:43:21;;;;;;;13.68;8.70;;;;;;;;;;4934304;29;20090;-62
2023/10/19 01:45:47;;;;;;;14.32;8.98;;;;;;;;;;4933867;29;20088;-63
2023/10/19 01:48:16;;;;;;;15.10;9.63;;;;;;;;;;4918072;29;20036;-62
2023/10/19 01:50:41;;;;;;;13.65;8.73;;;;;;;;;;4916438;29;20023;-63
2023/10/19 01:53:15;;;;;;;17.38;8.77;;;;;;;;;;4934575;29;20040;-62
2023/10/19 01:55:43;;;;;;;13.65;8.80;;;;;;;;;;4934410;29;20051;-62
2023/10/19 01:58:09;;;;;;;13.55;8.82;;;;;;;;;;4936337;29;20079;-62
2023/10/19 02:00:37;;;;;;;12.88;9.00;;;;;;;;;;4934842;29;20039;-62
2023/10/19 02:03:07;;;;;;;13.82;8.93;;;;;;;;;;4933685;29;20036;-62
2023/10/19 02:05:39;;;;;;;16.77;9.15;;;;;;;;;;4930794;29;20477;-63
2023/10/19 02:08:08;;;;;;;13.95;8.68;;;;;;;;;;4934760;29;20051;-62
2023/10/19 02:10:35;;;;;;;14.40;8.85;;;;;;;;;;4934179;29;20481;-62
2023/10/19 02:13:06;;;;;;;13.32;9.02;;;;;;;;;;4911435;29;20490;-62
2023/10/19 02:15:35;;;;;;;;;;;;;;;;;;4913768;29;20043;-62
2023/10/19 02:18:02;;;;;;;13.75;8.20;;;;;;;;;;4918934;29;20288;-62
2023/10/19 02:20:28;;;;;;;12.70;8.07;;;;;;;;;;4917444;29;20051;-63
2023/10/19 02:22:57;;;;;;;12.85;8.80;;;;;;;;;;4913604;29;20032;-62
2023/10/19 02:25:24;;;;;;;13.15;8.50;;;;;;;;;;4935821;29;20446;-63
2023/10/19 02:27:51;;;;;;;13.20;8.85;;;;;;;;;;4915060;29;20040;-62
2023/10/19 02:30:17;;;;;;;16.38;8.75;;;;;;;;;;4935563;29;20487;-62
2023/10/19 02:32:43;;;;;;;13.55;8.45;;;;;;;;;;4919944;29;20629;-62
2023/10/19 02:35:09;;;;;;;13.55;9.10;;;;;;;;;;4916448;29;20032;-62
2023/10/19 02:37:34;;;;;;;15.10;8.88;;;;;;;;;;4916690;29;20168;-62
2023/10/19 02:40:00;;;;;;;14.27;8.77;;;;;;;;;;4916037;29;20501;-62
2023/10/19 02:42:25;;;;;;;15.05;9.85;;;;;;;;;;4926335;29;20036;-64
2023/10/19 02:44:51;;;;;;;13.65;8.55;;;;;;;;;;4915932;29;20042;-62
2023/10/19 02:47:17;;;;;;;14.90;8.55;;;;;;;;;;4914940;29;20039;-62
2023/10/19 02:49:44;;;;;;;13.90;8.27;;;;;;;;;;4897653;29;20031;-62
2023/10/19 02:52:13;;;;;;;11.70;8.35;;;;;;;;;;4910715;29;20059;-62
2023/10/19 02:54:39;;;;;;;14.60;8.27;;;;;;;;;;4915596;29;20096;-63
2023/10/19 02:57:12;;;;;;;14.02;8.32;;;;;;;;;;4915195;29;20131;-62
2023/10/19 02:59:40;;;;;;;16.02;7.85;;;;;;;;;;4934497;29;20083;-62
2023/10/19 03:04:37;;;;;;;14.13;7.07;;;;;;;;;;4913090;29;20032;-62
2023/10/19 03:07:03;;;;;;;12.25;7.13;;;;;;;;;;4917297;29;20035;-63
2023/10/19 03:09:29;;;;;;;14.27;7.05;;;;;;;;;;4915715;29;20044;-63
2023/10/19 03:11:59;;;;;;;10.10;6.45;;;;;;;;;;4933203;29;20054;-62
2023/10/19 03:14:26;;;;;;;13.13;7.00;;;;;;;;;;4923535;29;20099;-63
2023/10/19 03:16:52;;;;;;;9.02;5.95;;;;;;;;;;4912104;29;20088;-63
2023/10/19 03:19:17;;;;;;;8.10;5.55;;;;;;;;;;4915158;29;20078;-62
2023/10/19 03:21:43;;;;;;;9.27;5.70;;;;;;;;;;4915564;29;20059;-62
2023/10/19 03:24:15;;;;;;;10.45;6.10;;;;;;;;;;4910734;29;20484;-62
2023/10/19 03:26:48;;;;;;;8.13;5.53;;;;;;;;;;4914276;29;20035;-63
2023/10/19 03:29:15;;;;;;;11.52;5.88;;;;;;;;;;4904792;29;20401;-63
2023/10/19 03:31:43;;;;;;;7.95;5.20;;;;;;;;;;4914149;29;20032;-62
2023/10/19 03:34:17;;;;;;;10.10;5.57;;;;;;;;;;4914968;29;20036;-62
2023/10/19 03:36:43;;;;;;;8.60;5.35;;;;;;;;;;4914818;29;20476;-62
2023/10/19 03:39:12;;;;;;;10.02;5.15;;;;;;;;;;4915533;29;20044;-62
2023/10/19 03:41:41;;;;;;;8.02;5.45;;;;;;;;;;4918470;29;20140;-62
2023/10/19 03:47:05;;;;;;;10.63;4.95;;;;;;;;;;4885823;29;20048;-62
2023/10/19 03:49:36;;;;;;;8.82;4.70;;;;;;;;;;4914825;29;20047;-64
2023/10/19 03:54:40;;;;;;;8.52;4.95;;;;;;;;;;4914113;29;20028;-62
2023/10/19 03:57:19;;;;;;;8.00;5.43;;;;;;;;;;4915427;29;20044;-62
2023/10/19 03:59:45;;;;;;;8.95;5.10;;;;;;;;;;4914373;29;20028;-62
2023/10/19 04:02:13;;;;;;;9.63;5.68;;;;;;;;;;4915444;29;20062;-62
2023/10/19 04:04:47;;;;;;;9.70;5.90;;;;;;;;;;4913465;29;20409;-62
2023/10/19 04:07:25;;;;;;;11.25;5.88;;;;;;;;;;4914951;29;20473;-62
2023/10/19 04:12:25;;;;;;;6.57;4.63;;;;;;;;;;4924527;29;20055;-62
2023/10/19 04:14:51;;;;;;;10.52;4.60;;;;;;;;;;4931905;29;20035;-62
2023/10/19 04:17:20;;;;;;;6.57;3.95;;;;;;;;;;4930107;29;20180;-62
2023/10/19 04:19:48;;;;;;;8.60;4.25;;;;;;;;;;4914913;29;20488;-62
2023/10/19 04:22:22;;;;;;;9.65;4.60;;;;;;;;;;4915392;29;20032;-62
2023/10/19 04:24:48;;;;;;;8.80;4.43;;;;;;;;;;4915843;29;20131;-62
2023/10/19 04:27:14;;;;;;;7.68;4.60;;;;;;;;;;4900235;29;20032;-62
2023/10/19 04:29:43;;;;;;;6.70;4.03;;;;;;;;;;4918465;29;20498;-62
2023/10/19 04:32:09;;;;;;;6.10;3.92;;;;;;;;;;4919026;29;20115;-62
2023/10/19 04:34:36;;;;;;;7.75;3.95;;;;;;;;;;4901434;29;20028;-63
2023/10/19 04:37:03;;;;;;;6.57;3.88;;;;;;;;;;4919092;29;20096;-62
2023/10/19 04:39:30;;;;;;;6.70;3.72;;;;;;;;;;4919056;29;20052;-62
2023/10/19 04:41:55;;;;;;;5.22;3.38;;;;;;;;;;4927280;29;20373;-62
2023/10/19 04:44:21;;;;;;;8.60;4.13;;;;;;;;;;4937925;29;20091;-62
2023/10/19 04:46:46;;;;;;;9.35;3.85;;;;;;;;;;4937018;29;20036;-62
2023/10/19 04:49:12;;;;;;;5.57;3.15;;;;;;;;;;4920734;29;20031;-62
2023/10/19 04:51:38;;;;;;;5.85;3.70;;;;;;;;;;4937198;29;20042;-62
2023/10/19 04:54:05;;;;;;;7.00;3.65;;;;;;;;;;4937580;29;20123;-62
2023/10/19 04:56:32;;;;;;;5.45;3.60;;;;;;;;;;4937228;29;20040;-63
2023/10/19 04:58:57;;;;;;;4.93;3.20;;;;;;;;;;4937552;29;20075;-62
2023/10/19 05:01:22;;;;;;;8.18;3.75;;;;;;;;;;4937658;29;20044;-62
2023/10/19 05:03:48;;;;;;;7.35;3.40;;;;;;;;;;4936772;29;20031;-62
2023/10/19 05:06:13;;;;;;;6.50;3.42;;;;;;;;;;4935825;29;20484;-62
2023/10/19 05:08:39;;;;;;;6.93;3.58;;;;;;;;;;4935769;29;20051;-62
2023/10/19 05:11:04;;;;;;;5.15;3.60;;;;;;;;;;4937396;29;20033;-62
2023/10/19 05:13:31;;;;;;;4.50;3.10;;;;;;;;;;4936925;29;20559;-62
2023/10/19 05:15:58;;;;;;;7.45;3.70;;;;;;;;;;4936412;29;20051;-62
2023/10/19 05:18:25;;;;;;;8.65;3.58;;;;;;;;;;4937774;29;20097;-61
2023/10/19 05:20:55;;;;;;;7.13;3.58;;;;;;;;;;4935831;29;20031;-62
2023/10/19 05:23:24;;;;;;;7.85;3.25;;;;;;;;;;4937240;29;20035;-62
2023/10/19 05:25:52;;;;;;;8.10;3.65;;;;;;;;;;4936598;29;20024;-62
2023/10/19 05:28:18;;;;;;;5.80;3.33;;;;;;;;;;4937105;29;20040;-62
2023/10/19 05:30:44;;;;;;;7.07;3.25;;;;;;;;;;4935982;29;20449;-65
2023/10/19 05:33:09;;;;;;;4.88;3.50;;;;;;;;;;4937145;29;20032;-62
2023/10/19 05:35:40;;;;;;;6.05;3.78;;;;;;;;;;4936483;29;20028;-64
2023/10/19 05:38:05;;;;;;;7.07;3.70;;;;;;;;;;4935888;29;20373;-61
2023/10/19 05:40:31;;;;;;;6.78;3.40;;;;;;;;;;4919234;29;20038;-61
2023/10/19 05:42:57;;;;;;;6.72;3.42;;;;;;;;;;4935929;29;20563;-61
2023/10/19 05:45:24;;;;;;;5.43;3.83;;;;;;;;;;4936855;29;20050;-61
2023/10/19 05:47:49;;;;;;;6.20;3.97;;;;;;;;;;4936024;29;20512;-61
2023/10/19 05:50:14;;;;;;;8.15;3.92;;;;;;;;;;4936882;29;20035;-61
2023/10/19 05:52:43;;;;;;;6.65;3.67;;;;;;;;;;4934832;29;20079;-61
2023/10/19 05:55:12;;;;;;;6.68;3.47;;;;;;;;;;4936566;29;20071;-61
2023/10/19 05:57:42;;;;;;;6.93;3.60;;;;;;;;;;4936979;29;20035;-63
2023/10/19 06:00:12;;;;;;;7.28;3.50;;;;;;;;;;4955737;29;20028;-60
2023/10/19 06:02:45;;;;;;;8.00;3.67;;;;;;;;;;4937935;29;20027;-63
2023/10/19 06:05:11;;;;;;;8.82;3.33;;;;;;;;;;4955917;29;20031;-61
2023/10/19 06:07:38;;;;;;;6.30;3.42;;;;;;;;;;4939658;29;20042;-63
2023/10/19 06:10:05;;;;;;;6.65;3.70;;;;;;;;;;4936524;29;20039;-60
2023/10/19 06:12:31;;;;;;;7.57;3.42;;;;;;;;;;4936010;29;20074;-60
2023/10/19 06:14:57;;;;;;;7.68;3.53;;;;;;;;;;4935510;29;20119;-60
2023/10/19 06:17:23;;;;;;;6.43;3.60;;;;;;;;;;4936332;29;20027;-60
2023/10/19 06:20:33;;;;;;;7.00;3.83;;;;;;;;;;4937879;29;20027;-60
2023/10/19 06:23:05;;;;;;;6.57;3.60;;;;;;;;;;4916177;29;20302;-60
2023/10/19 06:25:32;;;;;;;8.32;3.65;;;;;;;;;;4917158;29;20071;-60
2023/10/19 06:27:59;;;;;;;6.78;3.22;;;;;;;;;;4899375;29;20031;-61
2023/10/19 06:30:26;;;;;;;5.93;3.20;;;;;;;;;;4917100;29;20044;-60
2023/10/19 06:32:57;;;;;;;8.98;3.47;;;;;;;;;;4916142;29;20604;-60
2023/10/19 06:35:23;;;;;;;7.18;3.63;;;;;;;;;;4918987;29;20485;-60
2023/10/19 06:37:49;;;;;;;13.50;5.15;;;;;;;;;;4935066;29;20042;-61
2023/10/19 06:40:16;;;;;;;9.02;3.40;;;;;;;;;;4918704;29;20031;-60
2023/10/19 06:42:43;;;;;;;6.82;3.70;;;;;;;;;;4934912;29;20115;-61
2023/10/19 06:45:09;;;;;;;10.15;3.75;;;;;;;;;;4935643;29;20473;-60
2023/10/19 06:47:37;;;;;;;6.35;3.67;;;;;;;;;;4935632;29;20118;-60
2023/10/19 06:50:10;;;;;;;8.38;3.47;;;;;;;;;;4934121;29;20023;-61
2023/10/19 06:52:39;;;;;;;5.60;2.83;;;;;;;;;;4935679;29;20028;-61
2023/10/19 06:55:13;;;;;;;5.30;3.03;;;;;;;;;;4934837;29;20038;-61
2023/10/19 06:58:00;;;;;;;5.07;2.97;;;;;;;;;;4935466;29;20039;-61
2023/10/19 07:00:28;;;;;;;9.68;3.13;;;;;;;;;;4935390;29;20405;-61
2023/10/19 07:03:00;;;;;;;12.30;3.38;;;;;;;;;;4934616;29;20042;-61
2023/10/19 07:05:25;;;;;;;5.13;2.83;;;;;;;;;;4934726;29;20091;-60
2023/10/19 07:07:54;;;;;;;8.38;2.78;;;;;;;;;;4934632;29;20377;-60
2023/10/19 07:10:20;;;;;;;6.30;2.75;;;;;;;;;;4918089;29;20451;-60
2023/10/19 07:12:50;;;;;;;5.53;2.67;;;;;;;;;;4934398;29;20051;-60
2023/10/19 07:15:18;;;;;;;4.72;2.90;;;;;;;;;;4935439;29;20034;-61
2023/10/19 07:17:46;;;;;;;8.93;3.42;;;;;;;;;;4917284;29;20047;-62
2023/10/19 07:20:25;;;;;;;7.32;3.00;;;;;;;;;;4935102;29;20544;-61
2023/10/19 07:22:55;;;;;;;6.38;3.10;;;;;;;;;;4934342;29;20091;-61
2023/10/19 07:25:21;;;;;;;9.77;3.60;;;;;;;;;;4935057;29;20032;-60
2023/10/19 07:27:49;;;;;;;7.72;3.50;;;;;;;;;;4934101;29;20032;-61
2023/10/19 07:30:16;;;;;;;8.10;3.38;;;;;;;;;;4934996;29;20032;-61
2023/10/19 07:32:42;;;;;;;7.78;3.30;;;;;;;;;;4917454;29;20067;-62
2023/10/19 07:35:08;;;;;;;7.72;3.40;;;;;;;;;;4934358;29;20095;-61
2023/10/19 07:37:33;;;;;;;7.93;3.63;;;;;;;;;;4929763;29;20122;-61
2023/10/19 07:39:59;;;;;;;8.23;3.40;;;;;;;;;;4914806;29;20176;-61
2023/10/19 07:42:25;;;;;;;8.25;3.30;;;;;;;;;;4915695;29;20358;-61
2023/10/19 07:44:51;;;;;;;7.32;3.53;;;;;;;;;;4914648;29;20381;-61
2023/10/19 07:47:16;;;;;;;7.18;3.50;;;;;;;;;;4915773;29;20454;-62
2023/10/19 07:49:43;;;;;;;9.32;2.90;;;;;;;;;;4917143;29;20040;-63
2023/10/19 07:52:10;;;;;;;8.32;3.20;;;;;;;;;;4914967;29;20454;-61
2023/10/19 07:54:37;;;;;;;6.93;2.80;;;;;;;;;;4915484;29;20100;-60
2023/10/19 07:57:05;;;;;;;6.68;2.72;;;;;;;;;;4914618;29;20063;-60
2023/10/19 07:59:34;;;;;;;8.10;2.90;;;;;;;;;;4915646;29;20040;-60
2023/10/19 08:02:03;;;;;;;5.47;2.70;;;;;;;;;;4914700;29;20469;-60
2023/10/19 08:04:29;;;;;;;6.38;2.42;;;;;;;;;;4916029;29;20036;-60
2023/10/19 08:06:55;;;;;;;6.65;2.60;;;;;;;;;;4933463;29;20517;-60
2023/10/19 08:09:22;;;;;;;6.47;2.67;;;;;;;;;;4933870;29;20432;-60
2023/10/19 08:11:58;;;;;;;6.18;2.85;;;;;;;;;;4916143;29;20044;-61
2023/10/19 08:14:25;;;;;;;5.68;2.65;;;;;;;;;;4934304;29;20469;-60
2023/10/19 08:16:52;;;;;;;5.63;2.53;;;;;;;;;;4933588;29;20088;-60
2023/10/19 08:19:18;;;;;;;6.15;2.70;;;;;;;;;;4934345;29;20035;-60
2023/10/19 08:21:44;;;;;;;5.63;2.50;;;;;;;;;;4932585;29;20063;-62
2023/10/19 08:24:13;;;;;;;6.65;2.70;;;;;;;;;;4901299;29;20040;-60
2023/10/19 08:26:42;;;;;;;7.32;2.60;;;;;;;;;;4915212;29;20038;-60
2023/10/19 08:29:13;;;;;;;5.22;3.05;;;;;;;;;;4914477;29;20067;-60
2023/10/19 08:31:44;;;;;;;6.07;2.60;;;;;;;;;;4916353;29;20043;-60
2023/10/19 08:34:11;;;;;;;5.68;2.70;;;;;;;;;;4914115;29;20076;-60
2023/10/19 08:36:37;;;;;;;9.07;2.88;;;;;;;;;;4898563;29;20044;-60
2023/10/19 08:39:07;;;;;;;8.00;3.00;;;;;;;;;;4914454;29;20043;-61
2023/10/19 08:41:37;;;;;;;5.55;2.95;;;;;;;;;;4915290;29;20032;-60
2023/10/19 08:44:10;;;;;;;7.35;3.30;;;;;;;;;;4914439;29;20043;-61
2023/10/19 08:46:47;;;;;;;6.57;3.15;;;;;;;;;;4898348;29;20044;-60
2023/10/19 08:49:14;;;;;;;4.78;2.85;;;;;;;;;;4919695;29;20043;-61
2023/10/19 08:51:44;;;;;;;6.35;2.70;;;;;;;;;;4933487;29;20031;-61
2023/10/19 08:54:11;;;;;;;6.47;2.90;;;;;;;;;;4896891;29;20048;-61
2023/10/19 08:56:37;;;;;;;4.97;2.83;;;;;;;;;;4915864;29;20035;-60
2023/10/19 08:59:03;;;;;;;6.10;3.00;;;;;;;;;;4914245;29;20036;-61
2023/10/19 09:01:29;;;;;;;5.47;2.70;;;;;;;;;;4915337;29;20066;-61
2023/10/19 09:03:58;;;;;;;6.53;2.78;;;;;;;;;;4932677;29;20032;-61
2023/10/19 09:06:24;;;;;;;5.72;2.90;;;;;;;;;;4933873;29;20035;-61
2023/10/19 09:08:49;;;;;;;5.15;2.72;;;;;;;;;;4916294;29;20035;-63
2023/10/19 09:11:15;;;;;;;5.80;2.80;;;;;;;;;;4933665;29;20103;-61
2023/10/19 09:13:46;;;;;;;5.15;2.92;;;;;;;;;;4936066;29;20425;-60
2023/10/19 09:16:14;;;;;;;10.38;3.25;;;;;;;;;;4919128;29;20040;-59
2023/10/19 09:18:39;;;;;;;8.20;3.28;;;;;;;;;;4937270;29;20031;-59
2023/10/19 09:21:07;;;;;;;6.60;3.40;;;;;;;;;;4936141;29;20108;-60
2023/10/19 09:23:33;;;;;;;5.05;3.10;;;;;;;;;;4937161;29;20027;-61
2023/10/19 09:26:03;;;;;;;6.68;3.30;;;;;;;;;;4936367;29;20066;-61
2023/10/19 09:28:29;;;;;;;6.07;3.22;;;;;;;;;;4936107;29;20078;-61
2023/10/19 09:30:55;;;;;;;9.02;2.80;;;;;;;;;;4919214;29;20366;-61
2023/10/19 09:33:22;;;;;;;7.60;3.13;;;;;;;;;;4937342;29;20544;-62
2023/10/19 09:35:50;;;;;;;5.57;3.00;;;;;;;;;;4919942;29;20140;-63
2023/10/19 09:38:16;;;;;;;6.57;3.30;;;;;;;;;;4936814;29;20034;-61
2023/10/19 09:40:42;;;;;;;6.47;3.00;;;;;;;;;;4937023;29;20031;-61
2023/10/19 09:43:14;;;;;;;6.65;2.63;;;;;;;;;;4919069;29;20042;-61
2023/10/19 09:45:42;;;;;;;5.70;2.40;;;;;;;;;;4936229;29;20381;-61
2023/10/19 09:48:08;;;;;;;5.70;2.50;;;;;;;;;;4919145;29;20536;-60
2023/10/19 09:50:34;;;;;;;6.93;2.75;;;;;;;;;;4919829;29;20118;-60
2023/10/19 09:53:01;;;;;;;5.78;2.42;;;;;;;;;;4935672;29;20038;-60
2023/10/19 09:55:34;;;;;;;5.70;2.60;;;;;;;;;;4936560;29;20043;-60
2023/10/19 09:58:15;;;;;;;4.68;2.22;;;;;;;;;;4918293;29;20040;-61
2023/10/19 10:00:44;;;;;;;;;;;;;;;;;;4936715;29;20067;-60
2023/10/19 10:03:45;;;;;;;5.00;2.33;;;;;;;;;;4935235;29;19919;-61
2023/10/19 10:06:14;;;;;;;7.72;2.38;;;;;;;;;;4935603;29;20101;-60
2023/10/19 10:08:42;;;;;;;5.07;2.10;;;;;;;;;;4935816;29;20425;-61
2023/10/19 10:11:20;;;;;;;5.35;2.30;;;;;;;;;;4918509;29;20032;-61
2023/10/19 10:13:50;;;;;;;6.63;2.30;;;;;;;;;;4936201;29;20043;-61
2023/10/19 10:16:17;;;;;;;6.20;2.30;;;;;;;;;;4936159;29;20095;-61
2023/10/19 10:18:45;;;;;;;8.02;2.15;;;;;;;;;;4919306;29;20082;-61
2023/10/19 10:21:16;;;;;;;6.22;2.10;;;;;;;;;;4944659;29;20110;-62
2023/10/19 10:23:44;;;;;;;7.75;2.00;;;;;;;;;;4920549;29;20078;-61
2023/10/19 10:26:12;;;;;;;5.15;1.95;;;;;;;;;;4934593;29;20031;-61
2023/10/19 10:28:38;;;;;;;6.93;2.53;;;;;;;;;;4954280;29;20031;-61
2023/10/19 10:31:08;;;;;;;4.80;2.30;;;;;;;;;;4954234;29;20031;-61
2023/10/19 10:33:40;;;;;;;4.95;2.05;;;;;;;;;;4953731;29;20361;-61
2023/10/19 10:36:06;;;;;;;3.47;1.85;;;;;;;;;;4950292;29;20031;-60
2023/10/19 10:38:35;;;;;;;6.57;1.90;;;;;;;;;;4938067;29;20496;-60
2023/10/19 10:41:01;;;;;;;5.22;1.75;;;;;;;;;;4934998;29;20051;-61
2023/10/19 10:43:27;;;;;;;3.78;1.83;;;;;;;;;;4935944;29;20043;-61
2023/10/19 10:46:03;;;;;;;5.68;1.90;;;;;;;;;;4935206;29;20058;-64
2023/10/19 10:48:28;;;;;;;4.68;2.00;;;;;;;;;;4918707;29;20031;-61
2023/10/19 10:50:53;;;;;;;9.43;2.10;;;;;;;;;;4935273;29;20035;-63
2023/10/19 10:53:19;;;;;;;7.55;2.00;;;;;;;;;;4934401;29;20039;-61
2023/10/19 10:55:44;;;;;;;6.80;1.90;;;;;;;;;;4935511;29;20035;-61
2023/10/19 10:58:15;;;;;;;5.78;1.77;;;;;;;;;;4917421;29;20147;-61
2023/10/19 11:00:45;;;;;;;;;;;;;;;;;;4935218;29;20035;-61
2023/10/19 11:03:10;;;;;;;5.22;1.63;;;;;;;;;;4934591;29;19911;-62
2023/10/19 11:05:37;;;;;;;5.30;1.90;;;;;;;;;;4934637;29;20054;-61
2023/10/19 11:08:06;;;;;;;6.53;1.90;;;;;;;;;;4916378;29;20122;-61
2023/10/19 11:10:31;;;;;;;5.78;2.08;;;;;;;;;;4935310;29;20035;-61
2023/10/19 11:13:07;;;;;;;4.65;1.80;;;;;;;;;;4934698;29;20055;-63
2023/10/19 11:15:34;;;;;;;6.85;2.10;;;;;;;;;;4918412;29;20024;-60
2023/10/19 11:18:00;;;;;;;6.60;1.92;;;;;;;;;;4901438;29;20031;-60
2023/10/19 11:20:27;;;;;;;6.55;1.70;;;;;;;;;;4934594;29;20072;-60
2023/10/19 11:22:55;;;;;;;5.35;1.60;;;;;;;;;;4917907;29;20035;-60
2023/10/19 11:25:23;;;;;;;5.78;1.83;;;;;;;;;;4917279;29;20489;-61
2023/10/19 11:27:49;;;;;;;7.15;1.95;;;;;;;;;;4935030;29;20148;-61
2023/10/19 11:30:23;;;;;;;3.58;1.55;;;;;;;;;;4917264;29;20208;-61
2023/10/19 11:32:52;;;;;;;6.22;1.80;;;;;;;;;;4934959;29;20103;-61
2023/10/19 11:35:18;;;;;;;7.30;1.80;;;;;;;;;;4933684;29;20434;-61
2023/10/19 11:37:55;;;;;;;5.72;1.92;;;;;;;;;;4934901;29;20074;-61
2023/10/19 11:40:22;;;;;;;6.05;1.80;;;;;;;;;;4916939;29;20442;-60
2023/10/19 11:42:48;;;;;;;4.75;1.80;;;;;;;;;;4933392;29;20198;-61
2023/10/19 11:45:14;;;;;;;6.85;1.83;;;;;;;;;;4916746;29;20032;-61
2023/10/19 11:47:39;;;;;;;7.22;1.70;;;;;;;;;;4917774;29;20039;-60
2023/10/19 11:50:05;;;;;;;7.60;1.90;;;;;;;;;;4933626;29;20076;-62
2023/10/19 11:52:31;;;;;;;5.47;1.70;;;;;;;;;;4934143;29;20152;-60
2023/10/19 11:54:57;;;;;;;7.03;1.98;;;;;;;;;;4934294;29;20425;-63
2023/10/19 11:57:24;;;;;;;7.32;1.80;;;;;;;;;;4934318;29;20040;-61
2023/10/19 11:59:52;;;;;;;5.85;1.73;;;;;;;;;;4933302;29;20534;-61
2023/10/19 12:02:20;;;;;;;3.85;1.40;;;;;;;;;;4932514;29;20116;-61
2023/10/19 12:04:46;;;;;;;6.00;1.90;;;;;;;;;;4934192;29;20071;-61
2023/10/19 12:07:12;;;;;;;3.55;1.60;;;;;;;;;;4916807;29;20469;-61
2023/10/19 12:09:41;;;;;;;6.72;1.80;;;;;;;;;;4934585;29;20043;-61
2023/10/19 12:12:06;;;;;;;5.60;1.80;;;;;;;;;;4933509;29;20052;-61
2023/10/19 12:14:35;;;;;;;9.32;1.90;;;;;;;;;;4916770;29;20376;-61
2023/10/19 12:17:02;;;;;;;8.38;2.30;;;;;;;;;;4933876;29;20035;-63
2023/10/19 12:19:30;;;;;;;3.92;1.60;;;;;;;;;;4934064;29;20032;-60
2023/10/19 12:21:56;;;;;;;7.55;2.00;;;;;;;;;;4933992;29;20046;-60
2023/10/19 12:24:23;;;;;;;5.20;1.90;;;;;;;;;;4933365;29;20051;-60
2023/10/19 12:26:48;;;;;;;8.18;2.17;;;;;;;;;;4916908;29;20042;-60
2023/10/19 12:29:17;;;;;;;6.65;1.88;;;;;;;;;;4933386;29;20036;-60
2023/10/19 12:31:42;;;;;;;8.25;2.28;;;;;;;;;;4917326;29;20045;-61
2023/10/19 12:34:08;;;;;;;7.90;2.00;;;;;;;;;;4933611;29;20036;-60
2023/10/19 12:36:35;;;;;;;5.60;1.73;;;;;;;;;;4934164;29;20043;-60
2023/10/19 12:39:01;;;;;;;8.55;2.10;;;;;;;;;;4917020;29;20039;-63
2023/10/19 12:41:28;;;;;;;7.50;1.92;;;;;;;;;;4934153;29;20042;-61
2023/10/19 12:44:07;;;;;;;5.30;1.83;;;;;;;;;;4917265;29;20078;-61
2023/10/19 12:46:36;;;;;;;6.35;1.80;;;;;;;;;;4934465;29;20533;-61
2023/10/19 12:49:08;;;;;;;7.65;2.13;;;;;;;;;;4936935;29;20126;-61
2023/10/19 12:51:33;;;;;;;7.85;2.00;;;;;;;;;;4938064;29;20084;-60
2023/10/19 12:54:03;;;;;;;7.68;1.92;;;;;;;;;;4938119;29;20044;-61
2023/10/19 12:56:28;;;;;;;6.45;1.83;;;;;;;;;;4938130;29;20095;-60
2023/10/19 12:58:54;;;;;;;6.75;1.90;;;;;;;;;;4938309;29;20036;-62
2023/10/19 13:01:21;;;;;;;5.10;1.80;;;;;;;;;;4935632;29;20405;-60
2023/10/19 13:03:49;;;;;;;5.85;1.88;;;;;;;;;;4920994;29;20031;-60
2023/10/19 13:06:15;;;;;;;7.65;1.70;;;;;;;;;;4936450;29;20031;-60
2023/10/19 13:08:41;;;;;;;5.30;1.95;;;;;;;;;;4937851;29;20049;-60
2023/10/19 13:11:08;;;;;;;5.57;1.90;;;;;;;;;;4936772;29;20028;-61
2023/10/19 13:13:36;;;;;;;4.97;1.80;;;;;;;;;;4918858;29;20123;-60
2023/10/19 13:16:05;;;;;;;6.30;1.80;;;;;;;;;;4901376;29;20035;-62
2023/10/19 13:18:33;;;;;;;7.57;2.10;;;;;;;;;;4901676;29;20485;-60
2023/10/19 13:21:04;;;;;;;7.50;1.92;;;;;;;;;;4901685;29;20043;-60
2023/10/19 13:23:32;;;;;;;7.25;2.20;;;;;;;;;;4917344;29;20036;-60
2023/10/19 13:26:08;;;;;;;8.23;2.33;;;;;;;;;;4902490;29;20036;-60
2023/10/19 13:28:38;;;;;;;4.82;1.90;;;;;;;;;;4901335;29;20477;-60
2023/10/19 13:31:04;;;;;;;6.25;2.15;;;;;;;;;;4917668;29;20474;-62
2023/10/19 13:33:29;;;;;;;5.70;2.38;;;;;;;;;;4918066;29;20051;-60
2023/10/19 13:35:55;;;;;;;6.50;2.20;;;;;;;;;;4917796;29;20043;-59
2023/10/19 13:38:21;;;;;;;7.13;2.60;;;;;;;;;;4917118;29;20469;-60
2023/10/19 13:40:47;;;;;;;10.20;2.50;;;;;;;;;;4917784;29;20032;-61
2023/10/19 13:43:13;;;;;;;9.52;2.30;;;;;;;;;;4917123;29;20087;-61
2023/10/19 13:45:40;;;;;;;6.72;2.40;;;;;;;;;;4918066;29;20040;-61
2023/10/19 13:48:07;;;;;;;9.05;2.28;;;;;;;;;;4884722;29;20028;-62
2023/10/19 13:50:34;;;;;;;6.97;2.30;;;;;;;;;;4901076;29;20381;-61
2023/10/19 13:53:00;;;;;;;9.32;2.50;;;;;;;;;;4917774;29;20040;-59
2023/10/19 13:55:26;;;;;;;8.20;2.30;;;;;;;;;;4916684;29;20113;-60
2023/10/19 13:57:52;;;;;;;11.93;2.60;;;;;;;;;;4917723;29;20077;-60
2023/10/19 14:00:23;;;;;;;10.45;2.47;;;;;;;;;;4899633;29;20033;-60
2023/10/19 14:02:50;;;;;;;8.30;2.42;;;;;;;;;;4900697;29;20470;-61
2023/10/19 14:05:16;;;;;;;9.38;2.50;;;;;;;;;;4899900;29;20032;-61
2023/10/19 14:07:41;;;;;;;8.48;2.47;;;;;;;;;;4917362;29;20040;-61
2023/10/19 14:10:12;;;;;;;7.90;2.10;;;;;;;;;;4912650;29;20037;-62
2023/10/19 14:12:37;;;;;;;8.30;2.30;;;;;;;;;;4898727;29;20041;-60
2023/10/19 14:15:03;;;;;;;10.13;2.67;;;;;;;;;;4881553;29;20043;-60
2023/10/19 14:17:29;;;;;;;7.47;2.08;;;;;;;;;;4897704;29;20036;-61
2023/10/19 14:19:55;;;;;;;7.68;2.30;;;;;;;;;;4898517;29;20043;-60
2023/10/19 14:22:20;;;;;;;7.35;2.20;;;;;;;;;;4897674;29;20036;-60
2023/10/19 14:24:46;;;;;;;9.40;2.38;;;;;;;;;;4881568;29;20406;-61
2023/10/19 14:27:13;;;;;;;10.45;2.42;;;;;;;;;;4897264;29;20068;-61
2023/10/19 14:29:39;;;;;;;11.70;2.75;;;;;;;;;;4898289;29;20038;-60
2023/10/19 14:32:04;;;;;;;7.65;2.55;;;;;;;;;;4898265;29;20040;-60
2023/10/19 14:34:30;;;;;;;9.48;2.58;;;;;;;;;;4896528;29;20044;-60
2023/10/19 14:36:55;;;;;;;5.75;2.40;;;;;;;;;;4897784;29;20096;-61
2023/10/19 14:39:21;;;;;;;7.25;2.28;;;;;;;;;;4905919;29;20035;-60
2023/10/19 14:41:46;;;;;;;9.43;2.63;;;;;;;;;;4917363;29;20049;-61
2023/10/19 14:44:12;;;;;;;9.02;2.40;;;;;;;;;;4915806;29;20055;-61
2023/10/19 14:46:38;;;;;;;7.40;2.60;;;;;;;;;;4900032;29;20032;-61
2023/10/19 14:49:03;;;;;;;10.90;3.65;;;;;;;;;;4900229;29;20075;-61
2023/10/19 14:51:30;;;;;;;9.35;3.75;;;;;;;;;;4916170;29;20180;-60
2023/10/19 14:53:55;;;;;;;8.38;2.65;;;;;;;;;;4899381;29;20438;-62
2023/10/19 14:56:21;;;;;;;10.55;3.70;;;;;;;;;;4899009;29;20072;-61
2023/10/19 14:58:46;;;;;;;12.80;5.35;;;;;;;;;;4916475;29;20035;-61
2023/10/19 15:01:16;;;;;;;12.48;6.07;;;;;;;;;;4899019;29;20101;-61
2023/10/19 15:03:42;;;;;;;10.70;5.18;;;;;;;;;;4916193;29;20064;-60
2023/10/19 15:06:08;;;;;;;9.27;4.30;;;;;;;;;;4899031;29;20036;-62
2023/10/19 15:08:33;;;;;;;14.65;6.45;;;;;;;;;;4915571;29;20196;-61
2023/10/19 15:10:59;;;;;;;18.60;8.98;;;;;;;;;;4898876;29;20118;-60
2023/10/19 15:13:25;;;;;;;15.98;7.43;;;;;;;;;;4932418;29;20048;-63